This is the latest recevied weather packets stored in our database for station/object IV3CGM-1. If no packets are shown the sender has not sent any weather packets the latest 1 day(s).
| Time | Temp. | Humidity | Pressure | Rain* | Wind** | Luminosity | Snow |
|---|---|---|---|---|---|---|---|
| 1777981117 | 7.78° C | 99% | - | - | 1.34 m/s, 120° | - | - |
| 1777980544 | 7.78° C | 99% | - | - | 0.89 m/s, 96° | - | - |
| 1777979918 | 7.78° C | 99% | - | - | 1.34 m/s, 114° | - | - |
| 1777979310 | 8.33° C | 99% | - | - | 2.24 m/s, 120° | - | - |
| 1777978672 | 8.89° C | 98% | - | - | 2.24 m/s, 138° | - | - |
| 1777978069 | 8.89° C | 95% | - | - | 1.79 m/s, 150° | - | - |
| 1777977469 | 8.33° C | 93% | - | - | 1.79 m/s, 174° | - | - |
| 1777976847 | 8.33° C | 92% | - | - | 0 m/s | - | - |
| 1777976269 | 7.78° C | 95% | - | - | 0 m/s | - | - |
| 1777975708 | 7.78° C | 98% | - | - | 0.89 m/s, 217° | - | - |
| 1777975142 | 7.78° C | 99% | - | - | 1.34 m/s, 167° | - | - |
| 1777974532 | 7.78° C | 99% | - | - | 1.79 m/s, 150° | - | - |
| 1777973917 | 7.78° C | 99% | - | - | 1.34 m/s, 143° | - | - |
| 1777973342 | 7.78° C | 99% | - | - | 2.24 m/s, 143° | - | - |
| 1777972740 | 7.78° C | 99% | - | - | 2.68 m/s, 132° | - | - |
| 1777972163 | 8.33° C | 99% | - | - | 2.68 m/s, 132° | - | - |
| 1777971543 | 7.78° C | 98% | - | - | 1.34 m/s, 30° | - | - |
| 1777970987 | 7.78° C | 98% | - | - | 1.79 m/s, 307° | - | - |
| 1777970354 | 7.78° C | 98% | - | - | 0.89 m/s, 180° | - | - |
| 1777969788 | 8.33° C | 94% | - | - | 1.79 m/s, 90° | - | - |
| 1777969166 | 8.33° C | 92% | - | - | 0 m/s | - | - |
| 1777968554 | 9.44° C | 89% | - | - | 2.24 m/s, 89° | - | - |
| 1777967989 | 10° C | 80% | - | - | 1.79 m/s, 114° | - | - |
| 1777967366 | 10° C | 82% | - | - | 1.34 m/s, 103° | - | - |
| 1777966731 | 9.44° C | 85% | - | - | 1.34 m/s, 90° | - | - |
* Rain since midnight (hover to see other rain measurements)
** Current wind speed in m/s (hover to see current wind gust speed)